createdAt,value
2022-10-12T00:01:24.650Z,58.22
2022-10-12T00:03:53.881Z,57.89
2022-10-12T00:06:25.761Z,58.46
2022-10-12T00:08:56.000Z,56.97
2022-10-12T00:11:27.743Z,56.97
2022-10-12T00:13:57.553Z,54.27
2022-10-12T00:16:29.044Z,56.18
2022-10-12T00:18:59.423Z,56.09
2022-10-12T00:21:29.997Z,54.88
2022-10-12T00:24:01.178Z,56.08
2022-10-12T00:26:30.635Z,56.63
2022-10-12T00:29:02.065Z,56.63
2022-10-12T00:31:32.342Z,57.58
2022-10-12T00:34:02.979Z,60.05
2022-10-12T00:36:35.947Z,61.56
2022-10-12T00:39:07.779Z,60.37
2022-10-12T00:41:39.652Z,63.62
2022-10-12T00:44:34.213Z,58.82
2022-10-12T00:47:06.050Z,58.82
2022-10-12T00:49:35.853Z,61.62
2022-10-12T00:52:07.756Z,59.07
2022-10-12T00:54:39.634Z,57.65
2022-10-12T00:57:11.218Z,58.49
2022-10-12T00:59:43.104Z,58.49
2022-10-12T01:02:13.085Z,60.90
2022-10-12T01:04:42.797Z,61.24
2022-10-12T01:07:11.861Z,62.33
2022-10-12T01:09:41.067Z,60.42
2022-10-12T01:12:10.601Z,60.75
2022-10-12T01:14:39.714Z,62.46
2022-10-12T01:17:38.628Z,60.28
2022-10-12T01:20:23.118Z,58.89
2022-10-12T01:23:17.794Z,59.43
2022-10-12T01:26:18.521Z,59.91
2022-10-12T01:29:15.985Z,59.53
2022-10-12T01:32:15.227Z,57.56
2022-10-12T01:34:55.616Z,61.15
2022-10-12T01:37:45.698Z,59.72
2022-10-12T01:40:23.463Z,62.07
2022-10-12T01:42:52.916Z,62.25
2022-10-12T01:45:21.904Z,62.55
2022-10-12T01:47:53.660Z,62.97
2022-10-12T01:50:25.521Z,64.82
2022-10-12T01:53:12.564Z,63.13
2022-10-12T01:56:01.017Z,62.96
2022-10-12T01:58:41.931Z,64.09
2022-10-12T02:01:47.161Z,63.96
2022-10-12T02:04:19.051Z,59.79
2022-10-12T02:06:56.665Z,62.98
2022-10-12T02:09:31.867Z,63.15
2022-10-12T02:12:03.753Z,60.73
2022-10-12T02:14:35.740Z,60.81
2022-10-12T02:17:07.629Z,60.46
2022-10-12T02:19:42.541Z,62.80
2022-10-12T02:22:13.135Z,62.80
2022-10-12T02:24:44.435Z,62.09
2022-10-12T02:27:15.898Z,64.79
2022-10-12T02:29:48.134Z,62.37
2022-10-12T02:32:31.432Z,62.19
2022-10-12T02:35:33.308Z,64.17
2022-10-12T02:38:23.408Z,64.61
2022-10-12T02:40:59.007Z,64.61
2022-10-12T02:43:36.260Z,65.25
2022-10-12T02:46:08.115Z,65.25
2022-10-12T02:48:39.426Z,68.37
2022-10-12T02:51:10.782Z,65.22
2022-10-12T02:53:40.154Z,63.16
2022-10-12T02:56:14.278Z,62.84
2022-10-12T02:58:45.873Z,63.97
2022-10-12T03:01:17.339Z,63.97
2022-10-12T03:03:46.872Z,63.91
2022-10-12T03:06:15.942Z,62.60
2022-10-12T03:08:44.947Z,60.76
2022-10-12T03:11:14.864Z,59.93
2022-10-12T03:13:43.902Z,58.36
2022-10-12T03:16:13.497Z,59.35
2022-10-12T03:18:42.518Z,57.52
2022-10-12T03:21:11.579Z,59.04
2022-10-12T03:23:40.906Z,59.33
2022-10-12T03:26:10.220Z,61.63
2022-10-12T03:28:39.278Z,61.49
2022-10-12T03:31:08.270Z,61.11
2022-10-12T03:33:37.252Z,62.32
2022-10-12T03:36:06.550Z,62.12
2022-10-12T03:38:35.603Z,63.76
2022-10-12T03:41:06.834Z,62.50
2022-10-12T03:43:35.627Z,63.67
2022-10-12T03:46:04.629Z,61.63
2022-10-12T03:48:33.794Z,61.63
2022-10-12T03:51:02.779Z,63.49
2022-10-12T03:53:31.891Z,65.17
2022-10-12T03:56:00.894Z,64.09
2022-10-12T03:58:30.212Z,63.64
2022-10-12T04:00:59.296Z,62.36
2022-10-12T04:03:28.240Z,61.76
2022-10-12T04:05:59.463Z,60.00
2022-10-12T04:08:28.778Z,60.00
2022-10-12T04:10:57.788Z,55.18
2022-10-12T04:13:26.736Z,52.96
2022-10-12T04:15:56.070Z,50.87
2022-10-12T04:18:25.070Z,53.98
2022-10-12T04:20:54.538Z,54.85
2022-10-12T04:23:23.656Z,55.00
2022-10-12T04:25:52.592Z,53.15
2022-10-12T04:28:21.580Z,49.17
2022-10-12T04:30:50.499Z,47.63
2022-10-12T04:33:19.523Z,47.63
2022-10-12T04:35:48.485Z,45.95
2022-10-12T04:38:17.655Z,42.44
2022-10-12T04:40:48.515Z,39.57
2022-10-12T04:43:18.408Z,39.57
2022-10-12T04:45:48.912Z,33.91
2022-10-12T04:48:17.854Z,33.91
2022-10-12T04:50:47.495Z,35.15
2022-10-12T04:53:16.486Z,34.14
2022-10-12T04:55:45.591Z,33.54
2022-10-12T04:58:14.695Z,33.51
2022-10-12T05:00:43.704Z,33.50
2022-10-12T05:03:12.686Z,33.50
2022-10-12T05:05:41.715Z,32.56
2022-10-12T05:08:10.858Z,33.19
2022-10-12T05:10:40.106Z,32.86
2022-10-12T05:13:09.100Z,32.75
2022-10-12T05:15:38.025Z,32.46
2022-10-12T05:18:07.431Z,31.72
2022-10-12T05:20:37.472Z,31.35
2022-10-12T05:23:06.465Z,31.35
2022-10-12T05:25:36.745Z,32.07
2022-10-12T05:28:07.438Z,32.07
2022-10-12T05:30:36.428Z,32.85
2022-10-12T05:33:05.509Z,32.85
2022-10-12T05:35:34.545Z,32.56
2022-10-12T05:38:03.898Z,32.56
2022-10-12T05:40:32.856Z,31.98
2022-10-12T05:43:01.866Z,31.51
2022-10-12T05:45:30.837Z,31.93
2022-10-12T05:47:59.920Z,30.68
2022-10-12T05:50:28.896Z,30.68
2022-10-12T05:52:57.979Z,31.73
2022-10-12T05:55:26.978Z,31.38
2022-10-12T05:57:56.342Z,31.38
2022-10-12T06:00:25.369Z,31.56
2022-10-12T06:02:54.462Z,31.19
2022-10-12T06:05:23.410Z,31.19
2022-10-12T06:07:52.494Z,31.12
2022-10-12T06:10:24.241Z,30.57
2022-10-12T06:12:52.403Z,30.57
2022-10-12T06:15:21.406Z,31.87
2022-10-12T06:17:50.586Z,31.07
2022-10-12T06:20:19.636Z,31.26
2022-10-12T06:22:48.549Z,31.26
2022-10-12T06:25:17.766Z,30.74
2022-10-12T06:27:47.155Z,30.74
2022-10-12T06:30:16.195Z,30.46
2022-10-12T06:32:45.242Z,30.46
2022-10-12T06:35:14.275Z,31.07
2022-10-12T06:37:49.949Z,30.91
2022-10-12T06:40:15.540Z,30.61
2022-10-12T06:42:44.578Z,30.51
2022-10-12T06:45:13.766Z,30.62
2022-10-12T06:47:42.986Z,30.20
2022-10-12T06:50:13.194Z,30.20
2022-10-12T06:52:43.833Z,29.59
2022-10-12T06:55:13.010Z,29.10
2022-10-12T06:57:42.191Z,28.74
2022-10-12T07:00:12.562Z,28.83
2022-10-12T07:02:42.227Z,28.50
2022-10-12T07:05:11.316Z,28.37
2022-10-12T07:07:40.307Z,27.38
2022-10-12T07:10:09.881Z,27.38
2022-10-12T07:12:39.765Z,26.64
2022-10-12T07:15:09.943Z,24.96
2022-10-12T07:17:39.400Z,24.93
2022-10-12T07:20:09.294Z,24.97
2022-10-12T07:22:38.272Z,24.37
2022-10-12T07:25:07.837Z,24.33
2022-10-12T07:27:37.110Z,24.33
2022-10-12T07:30:07.127Z,24.31
2022-10-12T07:32:36.380Z,24.57
2022-10-12T07:35:05.660Z,24.57
2022-10-12T07:37:34.648Z,24.82
2022-10-12T07:40:03.666Z,24.21
2022-10-12T07:42:32.648Z,24.35
2022-10-12T07:45:01.646Z,23.92
2022-10-12T07:47:30.648Z,24.79
2022-10-12T07:49:59.606Z,24.57
2022-10-12T07:52:28.695Z,24.97
2022-10-12T07:54:57.824Z,25.13
2022-10-12T07:57:26.828Z,25.13
2022-10-12T07:59:58.902Z,25.34
2022-10-12T08:02:28.012Z,25.49
2022-10-12T08:04:57.001Z,25.49
2022-10-12T08:07:26.569Z,25.80
2022-10-12T08:09:55.569Z,25.80
2022-10-12T08:12:24.520Z,25.93
2022-10-12T08:14:53.548Z,25.93
2022-10-12T08:17:22.559Z,26.26
2022-10-12T08:19:51.630Z,26.26
2022-10-12T08:22:20.744Z,26.47
2022-10-12T08:24:49.694Z,27.41
2022-10-12T08:27:18.698Z,27.34
2022-10-12T08:29:48.888Z,27.34
2022-10-12T08:32:17.936Z,27.73
2022-10-12T08:34:46.933Z,27.30
2022-10-12T08:37:15.993Z,26.51
2022-10-12T08:39:48.154Z,27.18
2022-10-12T08:42:32.745Z,27.49
2022-10-12T08:45:30.104Z,27.49
2022-10-12T08:47:58.835Z,28.15
2022-10-12T08:50:36.925Z,27.11
2022-10-12T08:53:27.168Z,25.75
2022-10-12T08:55:58.686Z,25.75
2022-10-12T08:58:33.378Z,25.76
2022-10-12T09:01:40.122Z,25.50
2022-10-12T09:04:20.322Z,24.36
2022-10-12T09:07:04.875Z,25.14
2022-10-12T09:09:45.898Z,25.14
2022-10-12T09:12:26.907Z,24.98
2022-10-12T09:15:00.656Z,24.98
2022-10-12T09:17:37.233Z,24.91
2022-10-12T09:20:09.273Z,24.30
2022-10-12T09:22:39.271Z,24.79
2022-10-12T09:25:11.401Z,25.63
2022-10-12T09:27:45.198Z,25.36
2022-10-12T09:30:15.815Z,25.36
2022-10-12T09:32:56.657Z,25.26
2022-10-12T09:35:26.214Z,24.97
2022-10-12T09:37:56.070Z,26.52
2022-10-12T09:40:31.400Z,25.44
2022-10-12T09:43:02.768Z,25.38
2022-10-12T09:45:34.263Z,25.23
2022-10-12T09:48:24.190Z,26.12
2022-10-12T09:51:01.721Z,24.98
2022-10-12T09:53:36.950Z,25.14
2022-10-12T09:56:16.817Z,25.14
2022-10-12T09:58:54.008Z,24.96
2022-10-12T10:01:25.803Z,24.91
2022-10-12T10:04:12.653Z,25.85
2022-10-12T10:06:44.523Z,25.98
2022-10-12T10:09:34.513Z,25.98
2022-10-12T10:12:25.619Z,25.88
2022-10-12T10:15:00.439Z,27.02
2022-10-12T10:17:32.305Z,26.78
2022-10-12T10:20:04.422Z,26.78
2022-10-12T10:22:34.399Z,27.84
2022-10-12T10:25:03.713Z,27.84
2022-10-12T10:27:41.328Z,27.79
2022-10-12T10:33:10.094Z,27.14
2022-10-12T10:35:39.132Z,27.45
2022-10-12T10:38:10.256Z,27.75
2022-10-12T10:40:40.658Z,27.75
2022-10-12T10:43:12.642Z,26.75
2022-10-12T10:45:47.514Z,26.75
2022-10-12T10:48:19.368Z,26.81
2022-10-12T10:50:53.973Z,26.60
2022-10-12T10:53:28.943Z,26.60
2022-10-12T10:56:06.729Z,26.65
2022-10-12T10:58:41.269Z,26.65
2022-10-12T11:01:35.760Z,26.92
2022-10-12T11:04:07.725Z,26.72
2022-10-12T11:06:45.691Z,26.72
2022-10-12T11:09:17.536Z,26.28
2022-10-12T11:11:49.587Z,26.20
2022-10-12T11:14:21.417Z,25.81
2022-10-12T11:16:58.953Z,26.84
2022-10-12T11:19:44.439Z,26.87
2022-10-12T11:22:16.401Z,26.87
2022-10-12T11:24:50.928Z,26.78
2022-10-12T11:27:25.837Z,26.78
2022-10-12T11:30:08.307Z,27.43
2022-10-12T11:32:31.673Z,27.43
2022-10-12T11:35:05.957Z,26.84
2022-10-12T11:37:49.981Z,26.54
2022-10-12T11:40:47.765Z,27.09
2022-10-12T11:42:59.079Z,27.13
2022-10-12T11:45:34.054Z,27.13
2022-10-12T11:48:05.906Z,27.61
2022-10-12T11:50:37.888Z,27.67
2022-10-12T11:53:15.603Z,27.67
2022-10-12T11:56:17.976Z,27.98
2022-10-12T11:59:00.666Z,28.54
2022-10-12T12:01:31.275Z,28.27
2022-10-12T12:04:42.141Z,28.27
2022-10-12T12:07:04.192Z,29.28
2022-10-12T12:09:50.344Z,29.28
2022-10-12T12:12:19.462Z,28.77
2022-10-12T12:14:54.085Z,29.48
2022-10-12T12:17:31.579Z,29.41
2022-10-12T12:19:59.819Z,28.97
2022-10-12T12:22:33.789Z,28.97
2022-10-12T12:25:08.686Z,29.14
2022-10-12T12:27:43.608Z,29.14
2022-10-12T12:30:30.754Z,29.39
2022-10-12T12:33:05.474Z,29.04
2022-10-12T12:35:37.849Z,29.10
2022-10-12T12:38:18.738Z,29.61
2022-10-12T12:41:05.414Z,29.69
2022-10-12T12:43:37.566Z,29.66
2022-10-12T12:46:11.831Z,30.26
2022-10-12T12:48:44.017Z,29.98
2022-10-12T12:51:25.399Z,29.60
2022-10-12T12:54:03.302Z,30.20
2022-10-12T12:56:51.987Z,29.83
2022-10-12T12:59:29.778Z,29.97
2022-10-12T13:02:05.058Z,30.95
2022-10-12T13:05:00.465Z,30.25
2022-10-12T13:07:38.355Z,30.25
2022-10-12T13:10:19.106Z,30.55
2022-10-12T13:13:03.075Z,30.65
2022-10-12T13:15:43.973Z,30.72
2022-10-12T13:18:48.011Z,30.66
2022-10-12T13:21:21.806Z,31.55
2022-10-12T13:23:53.620Z,31.55
2022-10-12T13:26:29.356Z,31.43
2022-10-12T13:29:01.204Z,31.41
2022-10-12T13:31:35.955Z,31.05
2022-10-12T13:34:19.910Z,31.04
2022-10-12T13:37:03.610Z,32.16
2022-10-12T13:39:38.508Z,32.16
2022-10-12T13:42:06.622Z,33.43
2022-10-12T13:44:39.064Z,33.43
2022-10-12T13:47:27.518Z,34.26
2022-10-12T13:49:57.527Z,32.97
2022-10-12T13:52:32.747Z,33.66
2022-10-12T13:55:04.347Z,34.00
2022-10-12T13:57:50.507Z,33.72
2022-10-12T14:00:22.656Z,34.48
2022-10-12T14:03:09.460Z,34.53
2022-10-12T14:05:41.423Z,35.06
2022-10-12T14:08:22.424Z,35.06
2022-10-12T14:10:51.424Z,34.55
2022-10-12T14:13:35.097Z,33.51
2022-10-12T14:16:06.984Z,34.68
2022-10-12T14:18:38.925Z,34.02
2022-10-12T14:21:26.783Z,33.68
2022-10-12T14:23:58.969Z,35.56
2022-10-12T14:26:30.966Z,36.28
2022-10-12T14:29:02.797Z,36.28
2022-10-12T14:31:56.414Z,36.26
2022-10-12T14:34:31.065Z,36.24
2022-10-12T14:37:18.058Z,35.09
2022-10-12T14:39:49.725Z,37.01
2022-10-12T14:42:36.109Z,36.94
2022-10-12T14:45:07.733Z,37.45
2022-10-12T14:47:43.212Z,37.10
2022-10-12T14:50:15.113Z,37.38
2022-10-12T14:52:49.851Z,37.38
2022-10-12T14:55:24.212Z,38.05
2022-10-12T14:57:53.839Z,38.47
2022-10-12T15:00:25.399Z,39.36
2022-10-12T15:02:54.673Z,39.36
2022-10-12T15:05:25.942Z,39.59
2022-10-12T15:07:55.227Z,40.57
2022-10-12T15:10:25.545Z,39.66
2022-10-12T15:12:55.601Z,39.41
2022-10-12T15:15:48.424Z,40.83
2022-10-12T15:18:17.570Z,42.58
2022-10-12T15:20:49.645Z,42.19
2022-10-12T15:23:19.223Z,40.58
2022-10-12T15:25:51.195Z,40.03
2022-10-12T15:28:21.220Z,40.06
2022-10-12T15:33:23.325Z,41.88
2022-10-12T15:35:52.438Z,41.04
2022-10-12T15:38:21.423Z,41.36
2022-10-12T15:40:52.439Z,40.29
2022-10-12T15:43:21.496Z,41.81
2022-10-12T15:45:50.551Z,42.00
2022-10-12T15:48:20.206Z,42.00
2022-10-12T15:50:51.071Z,41.79
2022-10-12T15:53:24.256Z,41.37
2022-10-12T15:55:57.333Z,41.13
2022-10-12T15:58:26.372Z,42.45
2022-10-12T16:00:56.702Z,42.45
2022-10-12T16:03:27.479Z,42.45
2022-10-12T16:05:56.491Z,44.52
2022-10-12T16:08:26.079Z,44.97
2022-10-12T16:10:55.360Z,43.73
2022-10-12T16:13:24.736Z,43.73
2022-10-12T16:15:53.710Z,45.50
2022-10-12T16:18:22.702Z,45.57
2022-10-12T16:20:54.043Z,45.20
2022-10-12T16:23:31.387Z,45.52
2022-10-12T16:26:00.885Z,47.01
2022-10-12T16:28:29.901Z,47.01
2022-10-12T16:30:59.064Z,46.28
2022-10-12T16:33:28.453Z,44.87
2022-10-12T16:35:57.490Z,44.87
2022-10-12T16:38:26.475Z,45.42
2022-10-12T16:40:55.464Z,45.42
2022-10-12T16:43:25.074Z,44.62
2022-10-12T16:45:57.858Z,43.78
2022-10-12T16:48:26.910Z,44.98
2022-10-12T16:50:56.134Z,44.74
2022-10-12T16:53:25.147Z,44.26
2022-10-12T16:55:54.208Z,42.99
2022-10-12T16:58:23.380Z,43.74
2022-10-12T17:01:00.018Z,43.48
